createdAt,value
2023-01-21T03:09:29.277Z,14.13
2023-01-21T03:14:56.519Z,11.52
2023-01-21T03:20:08.799Z,11.57
2023-01-21T03:25:14.855Z,12.40
2023-01-21T03:30:21.421Z,11.48
2023-01-21T03:35:27.842Z,10.98
2023-01-21T03:40:36.954Z,9.82
2023-01-21T03:45:47.609Z,9.00
2023-01-21T03:50:57.215Z,9.48
2023-01-21T03:56:02.128Z,9.70
2023-01-21T04:01:05.706Z,10.70
2023-01-21T04:06:11.535Z,8.70
2023-01-21T04:17:06.980Z,9.32
2023-01-21T04:22:10.541Z,8.93
2023-01-21T04:27:14.127Z,9.25
2023-01-21T04:32:21.660Z,8.18
2023-01-21T04:37:25.215Z,6.28
2023-01-21T04:42:28.915Z,8.15
2023-01-21T04:47:33.830Z,7.88
2023-01-21T04:52:37.546Z,7.78
2023-01-21T04:57:41.137Z,7.47
2023-01-21T05:02:46.190Z,9.30
2023-01-21T05:07:53.863Z,8.60
2023-01-21T05:12:57.386Z,8.45
2023-01-21T05:18:02.489Z,8.43
2023-01-21T05:23:06.030Z,9.70
2023-01-21T05:28:09.615Z,9.63
2023-01-21T05:33:14.871Z,10.18
2023-01-21T05:38:18.376Z,10.45
2023-01-21T05:43:21.922Z,9.68
2023-01-21T05:48:29.185Z,12.07
2023-01-21T05:53:32.709Z,11.73
2023-01-21T05:58:36.763Z,12.00
2023-01-21T06:03:41.758Z,11.07
2023-01-21T06:08:45.389Z,10.65
2023-01-21T06:13:48.905Z,10.32
2023-01-21T06:18:53.920Z,11.45
2023-01-21T06:23:57.518Z,10.77
2023-01-21T06:29:01.551Z,10.02
2023-01-21T06:34:06.468Z,10.75
2023-01-21T06:39:10.955Z,9.93
2023-01-21T06:44:14.599Z,10.27
2023-01-21T06:49:19.515Z,10.50
2023-01-21T06:54:23.053Z,11.43
2023-01-21T06:59:26.666Z,10.82
2023-01-21T07:04:31.711Z,10.38
2023-01-21T07:09:35.471Z,10.93
2023-01-21T07:14:39.039Z,10.77
2023-01-21T07:19:44.129Z,10.45
2023-01-21T07:24:47.692Z,9.10
2023-01-21T07:29:51.261Z,11.90
2023-01-21T07:34:56.299Z,12.38
2023-01-21T07:39:59.875Z,15.07
2023-01-21T07:45:04.029Z,17.13
2023-01-21T07:50:10.521Z,16.40
2023-01-21T07:55:14.111Z,15.32
2023-01-21T08:00:18.864Z,16.27
2023-01-21T08:05:25.255Z,18.20
2023-01-21T08:10:28.853Z,17.98
2023-01-21T08:15:32.426Z,32.88
2023-01-21T08:20:37.572Z,36.28
2023-01-21T08:25:42.722Z,43.72
